Time;durP1;ratioP1;P1;durP2;ratioP2;P2;SDS_P1;SDS_P2;PMS_P1;PMS_P2;Temp;Humidity;BMP_temperature;BMP_pressure;BME280_temperature;BME280_humidity;BME280_pressure;Samples;Min_cycle;Max_cycle;Signal;HPM_P1;HPM_P2
2023/12/07 00:00:54;;;;;;;43.72;27.17;;;;;;;-146.25;100.00;52696.69;2071899;28;20142;-71
2023/12/07 00:01:56;;;;;;;45.25;26.63;;;;;;;-146.25;100.00;52672.34;2071191;28;36308;-71
2023/12/07 00:02:59;;;;;;;38.95;25.90;;;;;;;-146.25;100.00;52672.34;2070654;28;35256;-72
2023/12/07 00:04:01;;;;;;;43.63;25.83;;;;;;;-146.25;100.00;52666.25;2079898;28;20042;-71
2023/12/07 00:05:04;;;;;;;39.40;26.33;;;;;;;-146.25;100.00;52686.53;2078053;28;38680;-71
2023/12/07 00:06:06;;;;;;;41.55;25.98;;;;;;;-146.25;100.00;52674.38;2070849;28;35207;-72
2023/12/07 00:07:07;;;;;;;43.03;27.17;;;;;;;-146.25;100.00;52686.53;2071694;28;27707;-72
2023/12/07 00:08:11;;;;;;;46.08;28.00;;;;;;;-146.25;100.00;52716.97;2071478;28;37620;-71
2023/12/07 00:09:12;;;;;;;39.05;25.35;;;;;;;-146.25;100.00;52668.28;2078902;28;37036;-72
2023/12/07 00:10:14;;;;;;;44.22;26.80;;;;;;;-146.25;100.00;52682.47;2079535;28;20056;-71
2023/12/07 00:11:16;;;;;;;37.75;24.38;;;;;;;-146.25;100.00;52674.38;2070514;28;33644;-72
2023/12/07 00:12:18;;;;;;;38.97;25.88;;;;;;;-146.25;100.00;52670.31;2070903;28;32926;-71
2023/12/07 00:13:20;;;;;;;44.38;25.77;;;;;;;-146.25;100.00;52704.78;2072124;28;20081;-72
2023/12/07 00:14:22;;;;;;;42.05;25.73;;;;;;;-146.25;100.00;52680.47;2071511;28;38590;-72
2023/12/07 00:15:23;;;;;;;39.65;25.33;;;;;;;-146.25;100.00;52676.41;2071439;28;34815;-72
2023/12/07 00:16:25;;;;;;;41.22;26.05;;;;;;;-146.25;100.00;52712.91;2079703;28;20041;-72
2023/12/07 00:17:32;;;;;;;41.42;26.90;;;;;;;-146.25;100.00;52656.13;2078151;28;36715;-70
2023/12/07 00:18:34;;;;;;;44.65;26.02;;;;;;;-146.25;100.00;52708.84;2071758;28;34100;-70
2023/12/07 00:19:35;;;;;;;46.53;27.73;;;;;;;-146.25;100.00;52688.56;2070502;28;38384;-71
2023/12/07 00:20:37;;;;;;;41.60;26.73;;;;;;;-146.25;100.00;52670.31;2070476;28;39405;-71
2023/12/07 00:21:40;;;;;;;42.95;26.15;;;;;;;-146.25;100.00;52664.22;2071280;28;20046;-72
2023/12/07 00:22:42;;;;;;;41.80;25.85;;;;;;;-146.25;100.00;52658.16;2071062;28;35968;-71
2023/12/07 00:23:43;;;;;;;41.42;25.42;;;;;;;-146.25;100.00;52676.41;2071607;28;33668;-71
2023/12/07 00:24:46;;;;;;;41.78;25.98;;;;;;;-146.25;100.00;52692.63;2071729;28;20158;-72
2023/12/07 00:25:48;;;;;;;45.75;26.30;;;;;;;-146.25;100.00;52690.59;2071298;28;33290;-72
2023/12/07 00:26:50;;;;;;;39.00;24.90;;;;;;;-146.25;100.00;52658.16;2071287;28;33669;-72
2023/12/07 00:27:52;;;;;;;49.22;26.40;;;;;;;-146.25;100.00;52662.22;2071827;28;20086;-71
2023/12/07 00:28:54;;;;;;;41.97;26.30;;;;;;;-146.25;100.00;52656.13;2071461;28;38405;-72
2023/12/07 00:29:55;;;;;;;40.90;25.67;;;;;;;-146.25;100.00;52696.69;2070931;28;38006;-72
2023/12/07 00:31:00;;;;;;;40.22;25.23;;;;;;;-146.25;100.00;52710.88;2071113;28;20093;-72
2023/12/07 00:32:03;;;;;;;41.85;25.58;;;;;;;-146.25;100.00;52672.34;2070752;28;36934;-72
2023/12/07 00:33:07;;;;;;;42.25;25.98;;;;;;;-146.25;100.00;52648.00;2078498;28;38109;-72
2023/12/07 00:34:09;;;;;;;39.05;25.13;;;;;;;-146.25;100.00;52652.06;2072060;28;20038;-72
2023/12/07 00:35:11;;;;;;;43.05;25.67;;;;;;;-146.25;100.00;52637.88;2071000;28;37759;-72
2023/12/07 00:36:13;;;;;;;45.45;27.42;;;;;;;-146.25;100.00;52721.00;2071461;28;34803;-71
2023/12/07 00:37:15;;;;;;;46.00;26.88;;;;;;;-146.25;100.00;52680.47;2071339;28;35717;-72
2023/12/07 00:38:17;;;;;;;45.08;27.63;;;;;;;-146.25;100.00;52712.91;2071052;28;34498;-71
2023/12/07 00:39:18;;;;;;;43.15;27.63;;;;;;;-146.25;100.00;52700.72;2071391;28;35077;-71
2023/12/07 00:40:20;;;;;;;40.35;25.58;;;;;;;-146.25;100.00;52670.31;2071728;28;20872;-71
2023/12/07 00:41:24;;;;;;;45.97;26.50;;;;;;;-146.25;100.00;52688.56;2071182;28;35042;-71
2023/12/07 00:42:26;;;;;;;40.60;24.55;;;;;;;-146.25;100.00;52686.53;2070940;28;36093;-71
2023/12/07 00:43:28;;;;;;;40.67;24.42;;;;;;;-146.25;100.00;52648.00;2071306;28;36182;-72
2023/12/07 00:44:30;;;;;;;40.53;25.35;;;;;;;-146.25;100.00;52678.44;2070478;28;36378;-71
2023/12/07 00:45:32;;;;;;;42.85;27.17;;;;;;;-146.25;100.00;52668.28;2071557;28;33905;-72
2023/12/07 00:46:33;;;;;;;37.53;24.75;;;;;;;-146.25;100.00;52682.47;2071769;28;34195;-72
2023/12/07 00:47:35;;;;;;;40.55;25.30;;;;;;;-146.25;100.00;52670.31;2071140;28;37591;-72
2023/12/07 00:48:37;;;;;;;41.40;24.92;;;;;;;-146.25;100.00;52648.00;2071469;28;20120;-72
2023/12/07 00:49:40;;;;;;;39.85;25.10;;;;;;;-146.25;100.00;52645.97;2071429;28;34969;-72
2023/12/07 00:50:42;;;;;;;40.67;24.88;;;;;;;-146.25;100.00;52678.44;2070880;28;31263;-72
2023/12/07 00:51:44;;;;;;;36.92;24.10;;;;;;;-146.25;100.00;52708.84;2071431;28;32647;-72
2023/12/07 00:52:48;;;;;;;46.92;26.83;;;;;;;-146.25;100.00;52690.59;2070889;28;36751;-71
2023/12/07 00:53:50;;;;;;;37.80;24.20;;;;;;;-146.25;100.00;52664.22;2071657;28;20046;-72
2023/12/07 00:54:52;;;;;;;40.42;25.10;;;;;;;-146.25;100.00;52696.69;2070742;28;34373;-72
2023/12/07 00:55:56;;;;;;;43.00;25.73;;;;;;;-146.25;100.00;52650.03;2072329;28;34919;-72
2023/12/07 00:56:58;;;;;;;48.60;25.42;;;;;;;-146.25;100.00;52654.09;2073048;28;20923;-71
2023/12/07 00:58:02;;;;;;;39.30;23.85;;;;;;;-146.25;100.00;52668.28;2080529;28;20030;-72
2023/12/07 00:59:04;;;;;;;48.70;26.10;;;;;;;-146.25;100.00;52637.88;2071982;28;35452;-71
2023/12/07 01:00:07;;;;;;;47.72;27.40;;;;;;;-146.25;100.00;52700.72;2072856;28;20145;-72
2023/12/07 01:01:09;;;;;;;43.05;27.00;;;;;;;-146.25;100.00;52660.19;2072511;28;35896;-71
2023/12/07 01:02:11;;;;;;;43.90;26.67;;;;;;;-146.25;100.00;52688.56;2072778;28;33884;-71
2023/12/07 01:03:14;;;;;;;41.33;26.55;;;;;;;-146.25;100.00;52668.28;2080916;28;20045;-70
2023/12/07 01:04:16;;;;;;;44.55;27.75;;;;;;;-146.25;100.00;52696.69;2071721;28;39857;-71
2023/12/07 01:05:17;;;;;;;42.15;25.88;;;;;;;-146.25;100.00;52682.47;2071976;28;30786;-71
2023/12/07 01:06:19;;;;;;;46.67;26.08;;;;;;;-146.25;100.00;52694.66;2073258;28;20884;-71
2023/12/07 01:07:24;;;;;;;46.05;27.73;;;;;;;-146.25;100.00;52648.00;2072559;28;35466;-69
2023/12/07 01:08:25;;;;;;;42.35;26.27;;;;;;;-146.25;100.00;52674.38;2072950;28;34668;-70
2023/12/07 01:09:27;;;;;;;46.70;25.88;;;;;;;-146.25;100.00;52666.25;2072070;28;31395;-71
2023/12/07 01:10:29;;;;;;;40.63;25.80;;;;;;;-146.25;100.00;52682.47;2080933;28;21014;-71
2023/12/07 01:11:31;;;;;;;46.22;25.65;;;;;;;-146.25;100.00;52650.03;2079924;28;37113;-71
2023/12/07 01:12:33;;;;;;;46.38;27.35;;;;;;;-146.25;100.00;52652.06;2079923;28;34632;-71
2023/12/07 01:13:35;;;;;;;42.47;25.50;;;;;;;-146.25;100.00;52654.09;2080268;28;33448;-70
2023/12/07 01:14:37;;;;;;;39.78;24.52;;;;;;;-146.25;100.00;52696.69;2072184;28;36807;-71
2023/12/07 01:15:39;;;;;;;40.78;26.42;;;;;;;-146.25;100.00;52664.22;2073470;28;20123;-72
2023/12/07 01:16:42;;;;;;;42.97;26.65;;;;;;;-146.25;100.00;52668.28;2079819;28;36256;-71
2023/12/07 01:17:43;;;;;;;40.00;26.30;;;;;;;-146.25;100.00;52680.47;2079822;28;35167;-71
2023/12/07 01:18:45;;;;;;;37.03;24.83;;;;;;;-146.25;100.00;52698.72;2064639;28;20108;-71
2023/12/07 01:19:49;;;;;;;39.22;24.85;;;;;;;-146.25;100.00;52676.41;2063449;28;37782;-71
2023/12/07 01:20:51;;;;;;;43.13;26.13;;;;;;;-146.25;100.00;52674.38;2071711;28;36699;-72
2023/12/07 01:21:53;;;;;;;41.58;25.38;;;;;;;-146.25;100.00;52684.50;2072645;28;32353;-72
2023/12/07 01:22:54;;;;;;;43.17;26.27;;;;;;;-146.25;100.00;52674.38;2072471;28;36006;-71
2023/12/07 01:23:58;;;;;;;41.45;25.80;;;;;;;-146.25;100.00;52690.59;2080882;28;20927;-72
2023/12/07 01:25:03;;;;;;;45.42;24.98;;;;;;;-146.25;100.00;52682.47;2079232;28;34866;-72
2023/12/07 01:26:06;;;;;;;41.47;25.30;;;;;;;-146.25;100.00;52700.72;2072731;28;31883;-71
2023/12/07 01:27:08;;;;;;;40.53;25.10;;;;;;;-146.25;100.00;52660.19;2072936;28;20149;-71
2023/12/07 01:28:10;;;;;;;45.08;25.92;;;;;;;-146.25;100.00;52723.03;2072644;28;33526;-72
2023/12/07 01:29:13;;;;;;;42.70;25.20;;;;;;;-146.25;100.00;52660.19;2072435;28;35406;-71
2023/12/07 01:30:16;;;;;;;42.90;25.73;;;;;;;-146.25;100.00;52678.44;2073431;28;20042;-71
2023/12/07 01:31:19;;;;;;;47.13;26.67;;;;;;;-146.25;100.00;52631.78;2072107;28;36748;-71
2023/12/07 01:32:21;;;;;;;41.30;25.42;;;;;;;-146.25;100.00;52668.28;2072676;28;30759;-71
2023/12/07 01:33:23;;;;;;;45.10;26.08;;;;;;;-146.25;100.00;52696.69;2073412;28;20046;-71
2023/12/07 01:34:25;;;;;;;43.38;25.42;;;;;;;-146.25;100.00;52656.13;2072486;28;37226;-71
2023/12/07 01:35:29;;;;;;;37.28;24.45;;;;;;;-146.25;100.00;52648.00;2072615;28;22711;-71
2023/12/07 01:36:31;;;;;;;42.63;24.63;;;;;;;-146.25;100.00;52688.56;2072994;28;20043;-71
2023/12/07 01:37:33;;;;;;;39.33;24.50;;;;;;;-146.25;100.00;52668.28;2072041;28;33377;-71
2023/12/07 01:38:35;;;;;;;38.55;24.30;;;;;;;-146.25;100.00;52643.97;2072453;28;34504;-71
2023/12/07 01:39:36;;;;;;;43.72;26.35;;;;;;;-146.25;100.00;52645.97;2072366;28;32401;-72
2023/12/07 01:40:41;;;;;;;40.25;24.90;;;;;;;-146.25;100.00;52645.97;2072867;28;20026;-72
2023/12/07 01:41:44;;;;;;;40.95;24.55;;;;;;;-146.25;100.00;52694.66;2072127;28;35334;-71
2023/12/07 01:42:51;;;;;;;41.50;24.60;;;;;;;-146.25;100.00;52706.81;2072494;28;32462;-72
2023/12/07 01:43:53;;;;;;;39.28;24.42;;;;;;;-146.25;100.00;52684.50;2079601;28;35301;-72
2023/12/07 01:44:57;;;;;;;39.17;23.98;;;;;;;-146.25;100.00;52696.69;2080316;28;20038;-71
2023/12/07 01:45:59;;;;;;;40.13;24.98;;;;;;;-146.25;100.00;52666.25;2072396;28;36623;-72
2023/12/07 01:47:02;;;;;;;37.58;23.67;;;;;;;-146.25;100.00;52718.97;2079763;28;35206;-72
2023/12/07 01:48:04;;;;;;;43.13;25.30;;;;;;;-146.25;100.00;52692.63;2079902;28;27433;-72
2023/12/07 01:49:06;;;;;;;43.63;25.92;;;;;;;-146.25;100.00;52712.91;2072276;28;38044;-72
2023/12/07 01:50:14;;;;;;;40.10;24.25;;;;;;;-146.25;100.00;52682.47;2072907;28;20912;-72
2023/12/07 01:51:19;;;;;;;41.20;24.10;;;;;;;-146.25;100.00;52656.13;2079713;28;38692;-71
2023/12/07 01:52:25;;;;;;;37.35;23.42;;;;;;;-146.25;100.00;52648.00;2078608;28;32502;-72
2023/12/07 01:53:28;;;;;;;39.35;23.70;;;;;;;-146.25;100.00;52692.63;2073028;28;20892;-72
2023/12/07 01:54:30;;;;;;;37.63;23.13;;;;;;;-146.25;100.00;52686.53;2080021;28;37373;-72
2023/12/07 01:55:34;;;;;;;38.30;23.52;;;;;;;-146.25;100.00;52692.63;2079387;28;34919;-71
2023/12/07 01:56:36;;;;;;;38.30;24.35;;;;;;;-146.25;100.00;52678.44;2072973;28;20042;-72
2023/12/07 01:57:38;;;;;;;40.75;24.67;;;;;;;-146.25;100.00;52643.97;2071927;28;34251;-72
2023/12/07 01:58:40;;;;;;;36.33;22.60;;;;;;;-146.25;100.00;52635.84;2072440;28;34381;-72
2023/12/07 01:59:42;;;;;;;39.08;22.55;;;;;;;-146.25;100.00;52660.19;2072630;28;20866;-71
2023/12/07 02:00:45;;;;;;;37.65;24.60;;;;;;;-146.25;100.00;52702.75;2071331;28;37853;-72
2023/12/07 02:01:47;;;;;;;36.25;22.98;;;;;;;-146.25;100.00;52680.47;2071844;28;20038;-71
2023/12/07 02:02:51;;;;;;;37.00;24.42;;;;;;;-146.25;100.00;52690.59;2073779;28;20919;-70
2023/12/07 02:03:53;;;;;;;38.53;23.80;;;;;;;-146.25;100.00;52670.31;2079427;28;37239;-72
2023/12/07 02:04:56;;;;;;;40.90;24.13;;;;;;;-146.25;100.00;52654.09;2079448;28;33431;-71
2023/12/07 02:05:58;;;;;;;36.08;23.08;;;;;;;-146.25;100.00;52648.00;2079325;28;35921;-71
2023/12/07 02:07:01;;;;;;;36.17;23.25;;;;;;;-146.25;100.00;52631.78;2079253;28;36252;-71
2023/12/07 02:08:04;;;;;;;40.78;25.15;;;;;;;-146.25;100.00;52660.19;2071863;28;34463;-72
2023/12/07 02:09:07;;;;;;;35.78;22.20;;;;;;;-146.25;100.00;52672.34;2080650;28;20038;-71
2023/12/07 02:10:10;;;;;;;37.58;23.50;;;;;;;-146.25;100.00;52676.41;2078887;28;36301;-72
2023/12/07 02:11:12;;;;;;;40.83;23.52;;;;;;;-146.25;100.00;52656.13;2071527;28;38008;-72
2023/12/07 02:12:14;;;;;;;34.28;22.48;;;;;;;-146.25;100.00;52680.47;2063482;28;34541;-72
2023/12/07 02:13:15;;;;;;;36.47;22.88;;;;;;;-146.25;100.00;52680.47;2063491;28;36841;-72
2023/12/07 02:14:18;;;;;;;35.00;21.80;;;;;;;-146.25;100.00;52680.47;2071602;28;34731;-72
2023/12/07 02:15:20;;;;;;;36.40;22.98;;;;;;;-146.25;100.00;52615.56;2072583;28;36369;-72
2023/12/07 02:16:32;;;;;;;35.03;22.35;;;;;;;-146.25;100.00;52662.22;2079590;28;35579;-72
2023/12/07 02:18:15;;;;;;;35.03;21.40;;;;;;;-146.25;100.00;52674.38;2078885;28;20796;-72
2023/12/07 02:19:48;;;;;;;32.90;21.60;;;;;;;-146.25;100.00;52666.25;2071419;28;35652;-72
2023/12/07 02:21:21;;;;;;;37.63;22.23;;;;;;;-146.25;100.00;52688.56;2072606;28;20049;-72
2023/12/07 02:22:39;;;;;;;39.90;21.80;;;;;;;-146.25;100.00;52706.81;2072944;28;20047;-71
2023/12/07 02:23:42;;;;;;;33.95;21.05;;;;;;;-146.25;100.00;52660.19;2080579;28;20919;-72
2023/12/07 02:25:10;;;;;;;33.83;20.98;;;;;;;-146.25;100.00;52686.53;2077368;28;38382;-72
2023/12/07 02:26:15;;;;;;;34.83;21.50;;;;;;;-146.25;100.00;52684.50;2072027;28;36809;-72
2023/12/07 02:27:17;;;;;;;36.25;22.05;;;;;;;-146.25;100.00;52696.69;2080043;28;20034;-71
2023/12/07 02:28:20;;;;;;;34.17;21.17;;;;;;;-146.25;100.00;52700.72;2079813;28;20034;-72
2023/12/07 02:29:25;;;;;;;36.65;21.73;;;;;;;-146.25;100.00;52643.97;2071803;28;34422;-72
2023/12/07 02:30:26;;;;;;;38.20;23.65;;;;;;;-146.25;100.00;52635.84;2079759;28;28093;-72
2023/12/07 02:31:29;;;;;;;37.80;24.13;;;;;;;-146.25;100.00;52662.22;2079661;28;33488;-71
2023/12/07 02:32:31;;;;;;;38.03;22.63;;;;;;;-146.25;100.00;52696.69;2079717;28;36331;-71
2023/12/07 02:33:33;;;;;;;34.50;22.08;;;;;;;-146.25;100.00;52654.09;2080044;28;20042;-72
2023/12/07 02:34:35;;;;;;;31.80;21.77;;;;;;;-146.25;100.00;52668.28;2079852;28;33291;-72
2023/12/07 02:35:40;;;;;;;35.33;22.13;;;;;;;-146.25;100.00;52645.97;2079884;28;20034;-72
2023/12/07 02:36:43;;;;;;;36.80;22.27;;;;;;;-146.25;100.00;52660.19;2071381;28;33316;-72
2023/12/07 02:37:50;;;;;;;35.15;22.73;;;;;;;-146.25;100.00;52656.13;2071307;28;35649;-72
2023/12/07 02:38:56;;;;;;;34.97;22.23;;;;;;;-146.25;100.00;52688.56;2064365;28;32586;-72
2023/12/07 02:40:05;;;;;;;35.83;23.45;;;;;;;-146.25;100.00;52680.47;2072528;28;20043;-71
2023/12/07 02:41:08;;;;;;;39.80;22.85;;;;;;;-146.25;100.00;52631.78;2079886;28;34076;-71
2023/12/07 02:42:12;;;;;;;34.50;22.58;;;;;;;-146.25;100.00;52658.16;2078526;28;32830;-71
2023/12/07 02:43:15;;;;;;;33.03;20.98;;;;;;;-146.25;100.00;52708.84;2071970;28;33750;-71
2023/12/07 02:44:17;;;;;;;32.50;21.73;;;;;;;-146.25;100.00;52712.91;2079753;28;34128;-72
2023/12/07 02:45:22;;;;;;;36.95;22.63;;;;;;;-146.25;100.00;52688.56;2071290;28;20026;-71
2023/12/07 02:46:26;;;;;;;34.13;22.08;;;;;;;-146.25;100.00;52718.97;2063986;28;33178;-72
2023/12/07 02:47:27;;;;;;;40.45;23.88;;;;;;;-146.25;100.00;52662.22;2079325;28;32932;-72
2023/12/07 02:48:30;;;;;;;39.53;23.48;;;;;;;-146.25;100.00;52729.13;2079247;28;36641;-72
2023/12/07 02:49:32;;;;;;;33.22;20.83;;;;;;;-146.25;100.00;52702.75;2072208;28;32620;-72
2023/12/07 02:50:34;;;;;;;37.30;22.65;;;;;;;-146.25;100.00;52674.38;2071155;28;32844;-71
2023/12/07 02:51:36;;;;;;;39.20;22.92;;;;;;;-146.25;100.00;52668.28;2071390;28;35176;-72
2023/12/07 02:52:38;;;;;;;36.42;22.20;;;;;;;-146.25;100.00;52676.41;2071896;28;32216;-72
2023/12/07 02:53:40;;;;;;;33.45;21.25;;;;;;;-146.25;100.00;52615.56;2071877;28;37054;-71
2023/12/07 02:54:42;;;;;;;38.78;22.70;;;;;;;-146.25;100.00;52678.44;2079658;28;31838;-72
2023/12/07 02:55:43;;;;;;;35.67;22.25;;;;;;;-146.25;100.00;52696.69;2079240;28;30864;-71
2023/12/07 02:56:48;;;;;;;36.92;21.98;;;;;;;-146.25;100.00;52658.16;2071109;28;37498;-72
2023/12/07 02:57:51;;;;;;;33.97;21.80;;;;;;;-146.25;100.00;52688.56;2071092;28;33227;-72
2023/12/07 02:58:53;;;;;;;35.65;22.88;;;;;;;-146.25;100.00;52648.00;2071653;28;34242;-72
2023/12/07 02:59:55;;;;;;;34.45;22.13;;;;;;;-146.25;100.00;52692.63;2071314;28;37131;-71
2023/12/07 03:00:59;;;;;;;35.65;23.30;;;;;;;-146.25;100.00;52660.19;2071311;28;21160;-72
2023/12/07 03:02:01;;;;;;;35.40;23.20;;;;;;;-146.25;100.00;52690.59;2071848;28;38358;-72
2023/12/07 03:03:03;;;;;;;36.97;22.17;;;;;;;-146.25;100.00;52654.09;2072209;28;31158;-72
2023/12/07 03:04:04;;;;;;;34.78;22.55;;;;;;;-146.25;100.00;52662.22;2079566;28;33781;-72
2023/12/07 03:05:07;;;;;;;35.97;21.98;;;;;;;-146.25;100.00;52660.19;2079075;28;38194;-71
2023/12/07 03:06:09;;;;;;;35.70;21.75;;;;;;;-146.25;100.00;52684.50;2071711;28;32861;-72
2023/12/07 03:07:10;;;;;;;37.15;23.58;;;;;;;-146.25;100.00;52706.81;2071764;28;31836;-72
2023/12/07 03:08:12;;;;;;;35.15;21.83;;;;;;;-146.25;100.00;52704.78;2071842;28;36933;-72
2023/12/07 03:09:14;;;;;;;32.55;20.98;;;;;;;-146.25;100.00;52716.97;2071710;28;35398;-71
2023/12/07 03:10:16;;;;;;;32.28;20.67;;;;;;;-146.25;100.00;52686.53;2072048;28;35081;-71
2023/12/07 03:11:17;;;;;;;33.65;21.75;;;;;;;-146.25;100.00;52666.25;2071592;28;34799;-72
2023/12/07 03:12:19;;;;;;;32.78;21.23;;;;;;;-146.25;100.00;52686.53;2071755;28;34440;-72
2023/12/07 03:13:21;;;;;;;38.95;22.40;;;;;;;-146.25;100.00;52682.47;2071771;28;33886;-72
2023/12/07 03:14:23;;;;;;;36.58;21.20;;;;;;;-146.25;100.00;52712.91;2071729;28;35216;-71
2023/12/07 03:15:26;;;;;;;35.60;22.25;;;;;;;-146.25;100.00;52704.78;2071740;28;34383;-71
2023/12/07 03:16:27;;;;;;;33.40;21.88;;;;;;;-146.25;100.00;52688.56;2071773;28;33792;-72
2023/12/07 03:17:29;;;;;;;36.83;21.63;;;;;;;-146.25;100.00;52670.31;2071703;28;37143;-71
2023/12/07 03:18:31;;;;;;;35.75;21.67;;;;;;;-146.25;100.00;52682.47;2071185;28;33869;-71
2023/12/07 03:19:37;;;;;;;37.65;22.67;;;;;;;-146.25;100.00;52660.19;2071759;28;32030;-71
2023/12/07 03:20:39;;;;;;;37.90;21.75;;;;;;;-146.25;100.00;52668.28;2071455;28;38229;-71
2023/12/07 03:21:42;;;;;;;37.20;22.40;;;;;;;-146.25;100.00;52650.03;2071156;28;32508;-71
2023/12/07 03:22:44;;;;;;;34.08;21.70;;;;;;;-146.25;100.00;52670.31;2072066;28;35777;-71
2023/12/07 03:23:49;;;;;;;39.40;22.08;;;;;;;-146.25;100.00;52674.38;2071171;28;33051;-71
2023/12/07 03:24:52;;;;;;;32.10;19.63;;;;;;;-146.25;100.00;52645.97;2063982;28;32685;-71
2023/12/07 03:25:54;;;;;;;37.90;22.20;;;;;;;-146.25;100.00;52682.47;2070797;28;33937;-72
2023/12/07 03:26:56;;;;;;;35.45;21.50;;;;;;;-146.25;100.00;52658.16;2071502;28;37868;-71
2023/12/07 03:27:57;;;;;;;36.67;21.10;;;;;;;-146.25;100.00;52672.34;2071028;28;32778;-71
2023/12/07 03:28:59;;;;;;;37.92;22.63;;;;;;;-146.25;100.00;52676.41;2071745;28;32361;-71
2023/12/07 03:30:01;;;;;;;34.42;21.38;;;;;;;-146.25;100.00;52676.41;2071673;28;33353;-71
2023/12/07 03:31:03;;;;;;;37.55;23.02;;;;;;;-146.25;100.00;52694.66;2072466;28;20900;-71
2023/12/07 03:32:09;;;;;;;37.05;21.50;;;;;;;-146.25;100.00;52692.63;2071808;28;34735;-71
2023/12/07 03:33:10;;;;;;;33.92;21.10;;;;;;;-146.25;100.00;52706.81;2071576;28;36818;-71
2023/12/07 03:34:15;;;;;;;34.60;21.45;;;;;;;-146.25;100.00;52702.75;2072205;28;20043;-71
2023/12/07 03:35:17;;;;;;;32.72;21.23;;;;;;;-146.25;100.00;52674.38;2071321;28;35568;-71
2023/12/07 03:36:19;;;;;;;32.78;20.45;;;;;;;-146.25;100.00;52652.06;2071546;28;33957;-71
2023/12/07 03:37:21;;;;;;;38.60;21.88;;;;;;;-146.25;100.00;52660.19;2072497;28;20034;-71
2023/12/07 03:38:22;;;;;;;32.50;21.10;;;;;;;-146.25;100.00;52676.41;2070948;28;34023;-71
2023/12/07 03:39:29;;;;;;;33.67;20.15;;;;;;;-146.25;100.00;52694.66;2071073;28;33814;-71
2023/12/07 03:40:31;;;;;;;34.08;20.30;;;;;;;-146.25;100.00;52660.19;2079678;28;20121;-71
2023/12/07 03:41:33;;;;;;;30.23;19.02;;;;;;;-146.25;100.00;52680.47;2070932;28;37948;-71
2023/12/07 03:42:37;;;;;;;31.60;18.95;;;;;;;-146.25;100.00;52660.19;2062654;28;33938;-71
2023/12/07 03:43:51;;;;;;;34.35;20.20;;;;;;;-146.25;100.00;52660.19;2065803;28;20138;-71
2023/12/07 03:44:53;;;;;;;34.80;20.63;;;;;;;-146.25;100.00;52631.78;2071009;28;37426;-71
2023/12/07 03:45:55;;;;;;;30.58;20.25;;;;;;;-146.25;100.00;52660.19;2071948;28;30025;-71
2023/12/07 03:46:56;;;;;;;29.65;18.95;;;;;;;-146.25;100.00;52684.50;2071915;28;33882;-71
2023/12/07 03:47:58;;;;;;;33.40;19.13;;;;;;;-146.25;100.00;52696.69;2071239;28;38184;-71
2023/12/07 03:49:00;;;;;;;32.55;21.50;;;;;;;-146.25;100.00;52688.56;2071694;28;32577;-71
2023/12/07 03:50:02;;;;;;;33.20;19.85;;;;;;;-146.25;100.00;52714.94;2072122;28;20905;-71
2023/12/07 03:51:05;;;;;;;34.45;20.42;;;;;;;-146.25;100.00;52676.41;2079178;28;38954;-71
2023/12/07 03:52:07;;;;;;;33.15;19.08;;;;;;;-146.25;100.00;52666.25;2078432;28;37509;-71
2023/12/07 03:53:09;;;;;;;31.98;20.98;;;;;;;-146.25;100.00;52686.53;2070743;28;35729;-71
2023/12/07 03:54:11;;;;;;;34.30;20.77;;;;;;;-146.25;100.00;52716.97;2071151;28;33367;-71
2023/12/07 03:55:13;;;;;;;32.00;19.85;;;;;;;-146.25;100.00;52676.41;2070776;28;33164;-71
2023/12/07 03:56:26;;;;;;;28.88;18.85;;;;;;;-146.25;100.00;52676.41;2070985;28;34112;-71
2023/12/07 03:57:28;;;;;;;31.88;20.70;;;;;;;-146.25;100.00;52678.44;2071218;28;36564;-71
2023/12/07 03:58:30;;;;;;;31.02;20.08;;;;;;;-146.25;100.00;52641.94;2079796;28;20811;-71
2023/12/07 03:59:32;;;;;;;31.73;21.30;;;;;;;-146.25;100.00;52650.03;2078985;28;31998;-71
2023/12/07 04:00:33;;;;;;;31.67;21.33;;;;;;;-146.25;100.00;52688.56;2071568;28;33966;-71
2023/12/07 04:01:35;;;;;;;35.30;20.85;;;;;;;-146.25;100.00;52631.78;2072555;28;20541;-70
2023/12/07 04:02:37;;;;;;;28.88;19.13;;;;;;;-146.25;100.00;52672.34;2071402;28;34341;-71
2023/12/07 04:03:39;;;;;;;33.33;20.35;;;;;;;-146.25;100.00;52680.47;2071381;28;37880;-71
2023/12/07 04:04:40;;;;;;;30.02;19.83;;;;;;;-146.25;100.00;52678.44;2072345;28;20924;-71
2023/12/07 04:05:45;;;;;;;31.60;18.92;;;;;;;-146.25;100.00;52686.53;2071236;28;37818;-71
2023/12/07 04:06:48;;;;;;;32.00;19.80;;;;;;;-146.25;100.00;52684.50;2072215;28;20034;-71
2023/12/07 04:07:50;;;;;;;26.92;18.08;;;;;;;-146.25;100.00;52676.41;2072214;28;20151;-71
2023/12/07 04:08:52;;;;;;;31.58;20.05;;;;;;;-146.25;100.00;52654.09;2071464;28;34698;-71
2023/12/07 04:09:54;;;;;;;34.58;21.63;;;;;;;-146.25;100.00;52696.69;2071823;28;31110;-70
2023/12/07 04:10:56;;;;;;;33.15;20.85;;;;;;;-146.25;100.00;52696.69;2071583;28;34745;-71
2023/12/07 04:11:59;;;;;;;35.80;20.75;;;;;;;-146.25;100.00;52668.28;2071435;28;37191;-71
2023/12/07 04:13:01;;;;;;;27.27;18.35;;;;;;;-146.25;100.00;52704.78;2078725;28;29337;-71
2023/12/07 04:14:03;;;;;;;33.88;20.40;;;;;;;-146.25;100.00;52639.91;2079174;28;20045;-71
2023/12/07 04:15:06;;;;;;;32.17;20.25;;;;;;;-146.25;100.00;52648.00;2071608;28;37916;-71
2023/12/07 04:16:09;;;;;;;29.33;19.55;;;;;;;-146.25;100.00;52698.72;2071885;28;20073;-71
2023/12/07 04:17:11;;;;;;;33.28;21.38;;;;;;;-146.25;100.00;52643.97;2071542;28;35674;-71
2023/12/07 04:18:15;;;;;;;31.25;20.27;;;;;;;-146.25;100.00;52682.47;2072336;28;20031;-71
2023/12/07 04:19:19;;;;;;;34.92;20.85;;;;;;;-146.25;100.00;52660.19;2070657;28;34380;-71
2023/12/07 04:20:21;;;;;;;30.98;20.48;;;;;;;-146.25;100.00;52672.34;2062877;28;32164;-71
2023/12/07 04:21:23;;;;;;;32.38;20.45;;;;;;;-146.25;100.00;52668.28;2063252;28;33120;-72
2023/12/07 04:22:25;;;;;;;32.53;20.80;;;;;;;-146.25;100.00;52660.19;2071589;28;20047;-71
2023/12/07 04:23:27;;;;;;;34.17;20.70;;;;;;;-146.25;100.00;52710.88;2071192;28;31030;-71
2023/12/07 04:24:29;;;;;;;38.25;22.45;;;;;;;-146.25;100.00;52721.00;2071397;28;34038;-71
2023/12/07 04:25:30;;;;;;;35.42;21.83;;;;;;;-146.25;100.00;52648.00;2071510;28;34498;-71
2023/12/07 04:26:32;;;;;;;37.88;21.48;;;;;;;-146.25;100.00;52672.34;2079077;28;31689;-71
2023/12/07 04:27:34;;;;;;;33.97;19.75;;;;;;;-146.25;100.00;52702.75;2079320;28;20041;-71
2023/12/07 04:28:36;;;;;;;33.90;20.38;;;;;;;-146.25;100.00;52698.72;2071335;28;35672;-71
2023/12/07 04:29:38;;;;;;;31.42;19.63;;;;;;;-146.25;100.00;52698.72;2071276;28;32505;-71
2023/12/07 04:30:40;;;;;;;26.58;18.02;;;;;;;-146.25;100.00;52672.34;2072719;28;20085;-71
2023/12/07 04:31:41;;;;;;;32.03;20.88;;;;;;;-146.25;100.00;52660.19;2073622;28;21089;-71
2023/12/07 04:32:43;;;;;;;28.90;19.38;;;;;;;-146.25;100.00;52680.47;2072838;28;32412;-71
2023/12/07 04:33:45;;;;;;;31.60;19.98;;;;;;;-146.25;100.00;52704.78;2081250;28;20046;-71
2023/12/07 04:34:47;;;;;;;32.53;20.73;;;;;;;-146.25;100.00;52648.00;2080027;28;35439;-71
2023/12/07 04:35:49;;;;;;;34.00;21.17;;;;;;;-146.25;100.00;52672.34;2072501;28;34094;-72
2023/12/07 04:36:53;;;;;;;32.38;20.75;;;;;;;-146.25;100.00;52680.47;2072908;28;32772;-71
2023/12/07 04:37:54;;;;;;;35.15;19.63;;;;;;;-146.25;100.00;52692.63;2072458;28;37321;-71
2023/12/07 04:38:56;;;;;;;33.25;20.15;;;;;;;-146.25;100.00;52690.59;2072739;28;35044;-71
2023/12/07 04:39:58;;;;;;;34.40;20.95;;;;;;;-146.25;100.00;52672.34;2071985;28;35806;-71
2023/12/07 04:41:00;;;;;;;35.33;20.70;;;;;;;-146.25;100.00;52688.56;2072002;28;37913;-71